Wetterstation Vordersexau
Wetterdaten: Woche 03.04.23 - 09.04.23 (KW14)
Datum Zeit Temp. A. Feuchte A. Luftdruck Regen Wind Richtung Taupunkt Windchill Windben
03.04.2023 00:00 7,2 C 94 % 1017,6 hPa 0,0 l/m 3,6 km/h (1 Bft) NO 6,3 C 7,2 C 6,1 km/h (2 Bft)
03.04.2023 01:00 7,0 C 86 % 1018,2 hPa 0,0 l/m 5,0 km/h (1 Bft) N 4,8 C 7,0 C 9,7 km/h (2 Bft)
03.04.2023 02:00 6,0 C 87 % 1018,3 hPa 0,0 l/m 3,6 km/h (1 Bft) N-NW 4,0 C 6,0 C 6,1 km/h (2 Bft)
03.04.2023 03:00 5,5 C 85 % 1018,5 hPa 0,0 l/m 1,1 km/h (1 Bft) N 3,2 C 5,5 C 3,6 km/h (1 Bft)
03.04.2023 04:00 5,1 C 86 % 1018,5 hPa 0,0 l/m 0,0 km/h (0 Bft) O-NO 3,0 C 5,1 C 0,0 km/h (0 Bft)
03.04.2023 05:00 4,6 C 84 % 1018,6 hPa 0,0 l/m 2,5 km/h (1 Bft) NO 2,1 C 4,6 C 6,1 km/h (2 Bft)
03.04.2023 06:00 4,7 C 84 % 1018,7 hPa 0,0 l/m 1,1 km/h (1 Bft) N-NO 2,2 C 4,7 C 2,5 km/h (1 Bft)
03.04.2023 07:00 4,7 C 83 % 1018,7 hPa 0,0 l/m 3,6 km/h (1 Bft) N 2,1 C 4,7 C 7,2 km/h (2 Bft)
03.04.2023 08:00 5,0 C 81 % 1019,1 hPa 0,0 l/m 1,1 km/h (1 Bft) O-SO 2,0 C 5,0 C 3,6 km/h (1 Bft)
03.04.2023 09:00 5,8 C 72 % 1019,3 hPa 0,0 l/m 1,1 km/h (1 Bft) O 1,2 C 5,8 C 6,1 km/h (2 Bft)
03.04.2023 10:00 7,5 C 66 % 1019,6 hPa 0,0 l/m 3,6 km/h (1 Bft) O 1,6 C 7,5 C 6,1 km/h (2 Bft)
03.04.2023 11:00 6,0 C 65 % 1020,3 hPa 0,0 l/m 6,1 km/h (2 Bft) SO -0,1 C 6,0 C 13,3 km/h (3 Bft)
03.04.2023 12:00 7,2 C 60 % 1020,3 hPa 0,0 l/m 3,6 km/h (1 Bft) SO -0,0 C 7,2 C 7,2 km/h (2 Bft)
03.04.2023 13:00 7,1 C 65 % 1020,0 hPa 0,0 l/m 2,5 km/h (1 Bft) O-NO 1,0 C 7,1 C 3,6 km/h (1 Bft)
03.04.2023 14:00 7,8 C 65 % 1019,7 hPa 0,0 l/m 1,1 km/h (1 Bft) O-NO 1,6 C 7,8 C 3,6 km/h (1 Bft)
03.04.2023 15:00 7,4 C 62 % 1019,4 hPa 0,0 l/m 3,6 km/h (1 Bft) O-NO 0,6 C 7,4 C 7,2 km/h (2 Bft)
03.04.2023 16:00 7,5 C 63 % 1019,0 hPa 0,0 l/m 2,5 km/h (1 Bft) O-NO 0,9 C 7,5 C 3,6 km/h (1 Bft)
03.04.2023 17:00 7,2 C 57 % 1019,1 hPa 0,0 l/m 1,1 km/h (1 Bft) NO -0,7 C 7,2 C 3,6 km/h (1 Bft)
03.04.2023 18:00 7,0 C 57 % 1019,1 hPa 0,0 l/m 2,5 km/h (1 Bft) N-NO -0,9 C 7,0 C 6,1 km/h (2 Bft)
03.04.2023 19:00 6,2 C 60 % 1019,3 hPa 0,0 l/m 1,1 km/h (1 Bft) N -1,0 C 6,2 C 2,5 km/h (1 Bft)
03.04.2023 20:00 5,7 C 63 % 1019,4 hPa 0,0 l/m 0,0 km/h (0 Bft) N -0,8 C 5,7 C 2,5 km/h (1 Bft)
03.04.2023 21:00 4,9 C 63 % 1019,6 hPa 0,0 l/m 0,0 km/h (0 Bft) NO -1,5 C 4,9 C 2,5 km/h (1 Bft)
03.04.2023 22:00 4,0 C 65 % 1019,6 hPa 0,0 l/m 1,1 km/h (1 Bft) N -2,0 C 4,0 C 3,6 km/h (1 Bft)
03.04.2023 23:00 2,6 C 70 % 1019,4 hPa 0,0 l/m 0,0 km/h (0 Bft) N-NO -2,3 C 2,6 C 2,5 km/h (1 Bft)
04.04.2023 00:00 2,0 C 72 % 1019,3 hPa 0,0 l/m 1,1 km/h (1 Bft) N-NO -2,5 C 2,0 C 2,5 km/h (1 Bft)
04.04.2023 01:00 1,5 C 73 % 1019,2 hPa 0,0 l/m 2,5 km/h (1 Bft) NO -2,8 C 1,5 C 3,6 km/h (1 Bft)
04.04.2023 02:00 1,7 C 71 % 1019,1 hPa 0,0 l/m 2,5 km/h (1 Bft) NO -3,0 C 1,7 C 3,6 km/h (1 Bft)
04.04.2023 03:00 0,4 C 77 % 1018,8 hPa 0,0 l/m 2,5 km/h (1 Bft) N -3,1 C 0,4 C 3,6 km/h (1 Bft)
04.04.2023 04:00 -0,9 C 81 % 1018,8 hPa 0,0 l/m 0,0 km/h (0 Bft) N -3,7 C -0,9 C 0,0 km/h (0 Bft)
04.04.2023 05:00 -1,3 C 82 % 1018,7 hPa 0,0 l/m 0,0 km/h (0 Bft) N -4,0 C -1,3 C 0,0 km/h (0 Bft)
04.04.2023 06:00 -1,5 C 80 % 1018,6 hPa 0,0 l/m 0,0 km/h (0 Bft) N -4,5 C -1,5 C 0,0 km/h (0 Bft)
04.04.2023 07:00 -2,0 C 82 % 1018,9 hPa 0,0 l/m 0,0 km/h (0 Bft) O-NO -4,7 C -2,0 C 0,0 km/h (0 Bft)
04.04.2023 08:00 -0,7 C 83 % 1019,2 hPa 0,0 l/m 2,5 km/h (1 Bft) W -3,2 C -0,7 C 3,6 km/h (1 Bft)
04.04.2023 09:00 2,8 C 64 % 1018,9 hPa 0,0 l/m 2,5 km/h (1 Bft) N-NO -3,3 C 2,8 C 3,6 km/h (1 Bft)
04.04.2023 10:00 5,3 C 52 % 1018,7 hPa 0,0 l/m 2,5 km/h (1 Bft) N-NO -3,7 C 5,3 C 3,6 km/h (1 Bft)
04.04.2023 11:00 7,1 C 48 % 1018,6 hPa 0,0 l/m 6,1 km/h (2 Bft) O-NO -3,2 C 7,1 C 11,2 km/h (2 Bft)
04.04.2023 12:00 8,7 C 50 % 1018,4 hPa 0,0 l/m 5,0 km/h (1 Bft) N -1,1 C 8,7 C 9,7 km/h (2 Bft)
04.04.2023 13:00 9,3 C 42 % 1018,0 hPa 0,0 l/m 7,2 km/h (2 Bft) N -2,9 C 8,7 C 11,2 km/h (2 Bft)
04.04.2023 14:00 10,0 C 42 % 1017,7 hPa 0,0 l/m 8,6 km/h (2 Bft) NO -2,3 C 8,5 C 13,3 km/h (3 Bft)
04.04.2023 15:00 10,5 C 41 % 1017,3 hPa 0,0 l/m 9,7 km/h (2 Bft) NO -2,2 C 8,3 C 17,3 km/h (3 Bft)
04.04.2023 16:00 10,7 C 41 % 1017,1 hPa 0,0 l/m 5,0 km/h (1 Bft) N -2,0 C 10,7 C 9,7 km/h (2 Bft)
04.04.2023 17:00 10,5 C 39 % 1017,2 hPa 0,0 l/m 7,2 km/h (2 Bft) N-NO -2,9 C 9,9 C 13,3 km/h (3 Bft)
04.04.2023 18:00 9,6 C 43 % 1017,1 hPa 0,0 l/m 5,0 km/h (1 Bft) N-NO -2,4 C 9,6 C 11,2 km/h (2 Bft)
04.04.2023 19:00 8,2 C 48 % 1004,1 hPa 0,0 l/m 1,1 km/h (1 Bft) N -2,1 C 8,2 C 3,6 km/h (1 Bft)
04.04.2023 20:00 5,8 C 54 % 1017,3 hPa 0,0 l/m 0,0 km/h (0 Bft) NO -2,8 C 5,8 C 0,0 km/h (0 Bft)
04.04.2023 21:00 5,2 C 55 % 1017,7 hPa 0,0 l/m 2,5 km/h (1 Bft) N -3,1 C 5,2 C 3,6 km/h (1 Bft)
04.04.2023 22:00 2,5 C 70 % 1017,8 hPa 0,0 l/m 0,0 km/h (0 Bft) O-SO -2,4 C 2,5 C 0,0 km/h (0 Bft)
04.04.2023 23:00 1,9 C 73 % 1018,2 hPa 0,0 l/m 1,1 km/h (1 Bft) N -2,4 C 1,9 C 2,5 km/h (1 Bft)
05.04.2023 00:00 0,8 C 76 % 1018,2 hPa 0,0 l/m 0,0 km/h (0 Bft) O-SO -2,9 C 0,8 C 0,0 km/h (0 Bft)
05.04.2023 01:00 1,0 C 75 % 1018,0 hPa 0,0 l/m 1,1 km/h (1 Bft) N -2,9 C 1,0 C 2,5 km/h (1 Bft)
05.04.2023 02:00 0,8 C 75 % 1017,9 hPa 0,0 l/m 0,0 km/h (0 Bft) O-SO -3,1 C 0,8 C 0,0 km/h (0 Bft)
05.04.2023 03:00 1,0 C 75 % 1017,3 hPa 0,0 l/m 1,1 km/h (1 Bft) N -2,9 C 1,0 C 3,6 km/h (1 Bft)
05.04.2023 04:00 0,9 C 74 % 1017,0 hPa 0,0 l/m 0,0 km/h (0 Bft) O-SO -3,2 C 0,9 C 2,5 km/h (1 Bft)
05.04.2023 05:00 -0,9 C 85 % 1016,8 hPa 0,0 l/m 1,1 km/h (1 Bft) N -3,1 C -0,9 C 2,5 km/h (1 Bft)
05.04.2023 06:00 -0,8 C 82 % 1016,7 hPa 0,0 l/m 0,0 km/h (0 Bft) N -3,5 C -0,8 C 0,0 km/h (0 Bft)
05.04.2023 07:00 -1,1 C 83 % 1017,1 hPa 0,0 l/m 0,0 km/h (0 Bft) O -3,6 C -1,1 C 0,0 km/h (0 Bft)
05.04.2023 08:00 0,0 C 83 % 1017,3 hPa 0,0 l/m 1,1 km/h (1 Bft) N -2,5 C 0,0 C 3,6 km/h (1 Bft)
05.04.2023 09:00 2,4 C 78 % 1017,2 hPa 0,0 l/m 1,1 km/h (1 Bft) W -1,0 C 2,4 C 2,5 km/h (1 Bft)
05.04.2023 10:00 4,8 C 69 % 1017,2 hPa 0,0 l/m 5,0 km/h (1 Bft) W -0,4 C 4,8 C 6,1 km/h (2 Bft)
05.04.2023 11:00 6,4 C 59 % 1017,0 hPa 0,0 l/m 7,2 km/h (2 Bft) W -1,0 C 5,7 C 9,7 km/h (2 Bft)
05.04.2023 12:00 8,2 C 57 % 1016,7 hPa 0,0 l/m 5,0 km/h (1 Bft) W 0,2 C 8,2 C 7,2 km/h (2 Bft)
05.04.2023 13:00 8,9 C 53 % 1016,3 hPa 0,0 l/m 8,6 km/h (2 Bft) NW -0,1 C 7,3 C 11,2 km/h (2 Bft)
05.04.2023 14:00 10,5 C 46 % 1015,9 hPa 0,0 l/m 3,6 km/h (1 Bft) N-NW -0,6 C 10,5 C 6,1 km/h (2 Bft)
05.04.2023 15:00 11,1 C 46 % 1015,6 hPa 0,0 l/m 3,6 km/h (1 Bft) W-NW -0,1 C 11,1 C 7,2 km/h (2 Bft)
05.04.2023 16:00 11,2 C 47 % 1015,1 hPa 0,0 l/m 5,0 km/h (1 Bft) N-NO 0,3 C 11,2 C 9,7 km/h (2 Bft)
05.04.2023 17:00 11,6 C 40 % 1014,7 hPa 0,0 l/m 2,5 km/h (1 Bft) W -1,5 C 11,6 C 6,1 km/h (2 Bft)
05.04.2023 18:00 11,4 C 38 % 1014,5 hPa 0,0 l/m 2,5 km/h (1 Bft) W -2,4 C 11,4 C 3,6 km/h (1 Bft)
05.04.2023 19:00 9,8 C 41 % 1014,6 hPa 0,0 l/m 5,0 km/h (1 Bft) W-NW -2,8 C 9,8 C 6,1 km/h (2 Bft)
05.04.2023 20:00 6,0 C 56 % 1014,9 hPa 0,0 l/m 1,1 km/h (1 Bft) W-NW -2,1 C 6,0 C 2,5 km/h (1 Bft)
05.04.2023 21:00 3,7 C 67 % 1015,6 hPa 0,0 l/m 2,5 km/h (1 Bft) N -1,8 C 3,7 C 3,6 km/h (1 Bft)
05.04.2023 22:00 2,4 C 73 % 1016,0 hPa 0,0 l/m 0,0 km/h (0 Bft) NW -1,9 C 2,4 C 0,0 km/h (0 Bft)
05.04.2023 23:00 1,8 C 77 % 1015,9 hPa 0,0 l/m 1,1 km/h (1 Bft) N -1,8 C 1,8 C 2,5 km/h (1 Bft)
06.04.2023 00:00 1,3 C 80 % 1016,0 hPa 0,0 l/m 0,0 km/h (0 Bft) N -1,8 C 1,3 C 0,0 km/h (0 Bft)
06.04.2023 01:00 0,7 C 82 % 1015,7 hPa 0,0 l/m 0,0 km/h (0 Bft) O-NO -2,0 C 0,7 C 3,6 km/h (1 Bft)
06.04.2023 02:00 0,0 C 83 % 1015,5 hPa 0,0 l/m 1,1 km/h (1 Bft) O-NO -2,5 C 0,0 C 3,6 km/h (1 Bft)
06.04.2023 03:00 -0,3 C 84 % 1015,2 hPa 0,0 l/m 1,1 km/h (1 Bft) O-SO -2,7 C -0,3 C 2,5 km/h (1 Bft)
06.04.2023 04:00 -0,8 C 87 % 1015,2 hPa 0,0 l/m 2,5 km/h (1 Bft) N -2,7 C -0,8 C 6,1 km/h (2 Bft)
06.04.2023 05:00 -1,1 C 87 % 1002,2 hPa 0,0 l/m 0,0 km/h (0 Bft) O -3,0 C -1,1 C 0,0 km/h (0 Bft)
06.04.2023 06:00 -1,4 C 87 % 1015,5 hPa 0,0 l/m 1,1 km/h (1 Bft) N -3,3 C -1,4 C 3,6 km/h (1 Bft)
06.04.2023 07:00 -1,4 C 87 % 1015,7 hPa 0,0 l/m 0,0 km/h (0 Bft) O -3,3 C -1,4 C 2,5 km/h (1 Bft)
06.04.2023 08:00 0,2 C 83 % 1015,7 hPa 0,0 l/m 1,1 km/h (1 Bft) SO -2,3 C 0,2 C 2,5 km/h (1 Bft)
06.04.2023 09:00 5,2 C 70 % 1015,7 hPa 0,0 l/m 1,1 km/h (1 Bft) O-SO 0,2 C 5,2 C 6,1 km/h (2 Bft)
06.04.2023 10:00 8,9 C 54 % 1015,7 hPa 0,0 l/m 1,1 km/h (1 Bft) S 0,1 C 8,9 C 2,5 km/h (1 Bft)
06.04.2023 11:00 10,2 C 50 % 1015,7 hPa 0,0 l/m 2,5 km/h (1 Bft) W-SW 0,3 C 10,2 C 3,6 km/h (1 Bft)
06.04.2023 12:00 11,0 C 53 % 1015,5 hPa 0,0 l/m 5,0 km/h (1 Bft) W-SW 1,8 C 11,0 C 6,1 km/h (2 Bft)
06.04.2023 13:00 12,2 C 45 % 1015,0 hPa 0,0 l/m 8,6 km/h (2 Bft) W-SW 0,6 C 10,8 C 11,2 km/h (2 Bft)
06.04.2023 14:00 12,4 C 47 % 1014,8 hPa 0,0 l/m 3,6 km/h (1 Bft) W 1,4 C 12,4 C 6,1 km/h (2 Bft)
06.04.2023 15:00 12,6 C 44 % 1014,3 hPa 0,0 l/m 6,1 km/h (2 Bft) W 0,7 C 12,6 C 11,2 km/h (2 Bft)
06.04.2023 16:00 12,3 C 47 % 1014,1 hPa 0,0 l/m 1,1 km/h (1 Bft) S-SW 1,3 C 12,3 C 2,5 km/h (1 Bft)
06.04.2023 17:00 12,2 C 49 % 1014,0 hPa 0,0 l/m 3,6 km/h (1 Bft) NW 1,8 C 12,2 C 6,1 km/h (2 Bft)
06.04.2023 18:00 11,3 C 51 % 1014,2 hPa 0,0 l/m 1,1 km/h (1 Bft) W-SW 1,5 C 11,3 C 3,6 km/h (1 Bft)
06.04.2023 19:00 10,4 C 57 % 1014,5 hPa 0,0 l/m 8,6 km/h (2 Bft) N 2,3 C 8,9 C 14,8 km/h (3 Bft)
06.04.2023 20:00 9,2 C 67 % 1014,5 hPa 0,0 l/m 0,0 km/h (0 Bft) N 3,4 C 9,2 C 0,0 km/h (0 Bft)
06.04.2023 21:00 8,1 C 75 % 1014,7 hPa 0,0 l/m 0,0 km/h (0 Bft) N 3,9 C 8,1 C 0,0 km/h (0 Bft)
06.04.2023 22:00 8,0 C 76 % 1014,4 hPa 0,0 l/m 0,0 km/h (0 Bft) N 4,0 C 8,0 C 0,0 km/h (0 Bft)
06.04.2023 23:00 8,1 C 74 % 1014,2 hPa 0,0 l/m 0,0 km/h (0 Bft) N 3,8 C 8,1 C 2,5 km/h (1 Bft)
07.04.2023 00:00 7,6 C 77 % 1014,0 hPa 0,0 l/m 0,0 km/h (0 Bft) SO 3,8 C 7,6 C 2,5 km/h (1 Bft)
07.04.2023 01:00 7,2 C 81 % 1013,5 hPa 0,0 l/m 1,1 km/h (1 Bft) N 4,2 C 7,2 C 3,6 km/h (1 Bft)
07.04.2023 02:00 6,7 C 82 % 1013,0 hPa 0,0 l/m 0,0 km/h (0 Bft) N 3,8 C 6,7 C 2,5 km/h (1 Bft)
07.04.2023 03:00 7,0 C 83 % 1012,6 hPa 0,0 l/m 0,0 km/h (0 Bft) SO 4,3 C 7,0 C 0,0 km/h (0 Bft)
07.04.2023 04:00 6,5 C 85 % 1011,9 hPa 0,0 l/m 1,1 km/h (1 Bft) N 4,2 C 6,5 C 2,5 km/h (1 Bft)
07.04.2023 05:00 6,1 C 86 % 1011,6 hPa 0,0 l/m 0,0 km/h (0 Bft) SO 3,9 C 6,1 C 0,0 km/h (0 Bft)
07.04.2023 06:00 5,9 C 88 % 1011,1 hPa 0,0 l/m 1,1 km/h (1 Bft) SO 4,1 C 5,9 C 2,5 km/h (1 Bft)
07.04.2023 07:00 6,0 C 86 % 1011,1 hPa 0,0 l/m 1,1 km/h (1 Bft) N 3,8 C 6,0 C 6,1 km/h (2 Bft)
07.04.2023 08:00 6,5 C 86 % 1011,1 hPa 0,0 l/m 0,0 km/h (0 Bft) SO 4,3 C 6,5 C 0,0 km/h (0 Bft)
07.04.2023 09:00 7,6 C 84 % 1011,7 hPa 0,0 l/m 5,0 km/h (1 Bft) W-SW 5,1 C 7,6 C 7,2 km/h (2 Bft)
07.04.2023 10:00 8,9 C 78 % 1012,1 hPa 0,0 l/m 6,1 km/h (2 Bft) W-SW 5,3 C 8,9 C 9,7 km/h (2 Bft)
07.04.2023 11:00 8,6 C 83 % 1012,5 hPa 0,0 l/m 11,2 km/h (2 Bft) S-SW 5,9 C 5,3 C 14,8 km/h (3 Bft)
07.04.2023 12:00 8,4 C 87 % 1012,8 hPa 0,0 l/m 8,6 km/h (2 Bft) W-SW 6,4 C 6,7 C 13,3 km/h (3 Bft)
07.04.2023 13:00 7,6 C 88 % 1013,1 hPa 0,0 l/m 7,2 km/h (2 Bft) W 5,7 C 7,0 C 11,2 km/h (2 Bft)
07.04.2023 14:00 7,3 C 89 % 1013,4 hPa 0,0 l/m 6,1 km/h (2 Bft) W 5,6 C 7,3 C 7,2 km/h (2 Bft)
07.04.2023 15:00 7,8 C 87 % 1013,5 hPa 0,0 l/m 6,1 km/h (2 Bft) W 5,8 C 7,8 C 7,2 km/h (2 Bft)
07.04.2023 16:00 8,5 C 86 % 1013,3 hPa 0,0 l/m 5,0 km/h (1 Bft) SW 6,3 C 8,5 C 7,2 km/h (2 Bft)
07.04.2023 17:00 8,9 C 82 % 1013,5 hPa 0,0 l/m 5,0 km/h (1 Bft) W-SW 6,0 C 8,9 C 7,2 km/h (2 Bft)
07.04.2023 18:00 9,8 C 77 % 1013,4 hPa 0,0 l/m 1,1 km/h (1 Bft) W 6,0 C 9,8 C 2,5 km/h (1 Bft)
07.04.2023 19:00 8,8 C 80 % 1014,2 hPa 0,0 l/m 2,5 km/h (1 Bft) W 5,5 C 8,8 C 3,6 km/h (1 Bft)
07.04.2023 20:00 7,2 C 86 % 1014,9 hPa 0,0 l/m 2,5 km/h (1 Bft) N 5,0 C 7,2 C 2,5 km/h (1 Bft)
07.04.2023 21:00 6,6 C 87 % 1015,2 hPa 0,0 l/m 0,0 km/h (0 Bft) N 4,6 C 6,6 C 0,0 km/h (0 Bft)
07.04.2023 22:00 6,1 C 89 % 1015,8 hPa 0,0 l/m 0,0 km/h (0 Bft) N 4,4 C 6,1 C 2,5 km/h (1 Bft)
07.04.2023 23:00 5,7 C 91 % 1016,3 hPa 0,0 l/m 0,0 km/h (0 Bft) N 4,3 C 5,7 C 2,5 km/h (1 Bft)
08.04.2023 00:00 6,0 C 91 % 1016,1 hPa 0,0 l/m 0,0 km/h (0 Bft) N 4,6 C 6,0 C 2,5 km/h (1 Bft)
08.04.2023 01:00 6,0 C 91 % 1016,3 hPa 0,0 l/m 0,0 km/h (0 Bft) N 4,6 C 6,0 C 0,0 km/h (0 Bft)
08.04.2023 02:00 5,4 C 91 % 1016,5 hPa 0,0 l/m 0,0 km/h (0 Bft) N 4,1 C 5,4 C 0,0 km/h (0 Bft)
08.04.2023 03:00 4,0 C 94 % 1016,3 hPa 0,0 l/m 0,0 km/h (0 Bft) N 3,1 C 4,0 C 0,0 km/h (0 Bft)
08.04.2023 04:00 4,5 C 94 % 1016,5 hPa 0,0 l/m 0,0 km/h (0 Bft) N 3,6 C 4,5 C 0,0 km/h (0 Bft)
08.04.2023 05:00 4,8 C 93 % 1016,4 hPa 0,0 l/m 0,0 km/h (0 Bft) N 3,8 C 4,8 C 2,5 km/h (1 Bft)
08.04.2023 06:00 4,9 C 94 % 1003,6 hPa 0,0 l/m 0,0 km/h (0 Bft) N 4,0 C 4,9 C 0,0 km/h (0 Bft)
08.04.2023 07:00 5,4 C 93 % 1016,8 hPa 0,0 l/m 0,0 km/h (0 Bft) N 4,4 C 5,4 C 0,0 km/h (0 Bft)
08.04.2023 08:00 6,2 C 91 % 1017,3 hPa 0,0 l/m 0,0 km/h (0 Bft) W 4,8 C 6,2 C 0,0 km/h (0 Bft)
08.04.2023 09:00 6,9 C 87 % 1017,6 hPa 0,0 l/m 1,1 km/h (1 Bft) W-SW 4,9 C 6,9 C 2,5 km/h (1 Bft)
08.04.2023 10:00 8,3 C 84 % 1005,1 hPa 0,0 l/m 2,5 km/h (1 Bft) W-SW 5,8 C 8,3 C 3,6 km/h (1 Bft)
08.04.2023 11:00 9,0 C 86 % 1018,1 hPa 0,0 l/m 2,5 km/h (1 Bft) W-SW 6,8 C 9,0 C 3,6 km/h (1 Bft)
08.04.2023 12:00 9,8 C 83 % 1018,2 hPa 0,0 l/m 2,5 km/h (1 Bft) N 7,1 C 9,8 C 3,6 km/h (1 Bft)
08.04.2023 13:00 12,0 C 77 % 1018,0 hPa 0,0 l/m 0,0 km/h (0 Bft) N 8,1 C 12,0 C 2,5 km/h (1 Bft)
08.04.2023 14:00 12,7 C 64 % 1017,7 hPa 0,0 l/m 2,5 km/h (1 Bft) N-NW 6,1 C 12,7 C 6,1 km/h (2 Bft)
08.04.2023 15:00 12,2 C 65 % 1017,5 hPa 0,0 l/m 3,6 km/h (1 Bft) N 5,8 C 12,2 C 6,1 km/h (2 Bft)
08.04.2023 16:00 11,1 C 73 % 1017,6 hPa 0,0 l/m 0,0 km/h (0 Bft) N 6,4 C 11,1 C 0,0 km/h (0 Bft)
08.04.2023 17:00 11,7 C 72 % 1017,6 hPa 0,0 l/m 0,0 km/h (0 Bft) N 6,8 C 11,7 C 0,0 km/h (0 Bft)
08.04.2023 18:00 11,3 C 74 % 1017,8 hPa 0,0 l/m 0,0 km/h (0 Bft) N 6,8 C 11,3 C 0,0 km/h (0 Bft)
08.04.2023 19:00 11,3 C 65 % 1018,1 hPa 0,0 l/m 0,0 km/h (0 Bft) N 5,0 C 11,3 C 0,0 km/h (0 Bft)
08.04.2023 20:00 9,9 C 73 % 1018,4 hPa 0,0 l/m 0,0 km/h (0 Bft) N 5,3 C 9,9 C 0,0 km/h (0 Bft)
08.04.2023 21:00 9,2 C 79 % 1019,1 hPa 0,0 l/m 0,0 km/h (0 Bft) N 5,8 C 9,2 C 0,0 km/h (0 Bft)
08.04.2023 22:00 8,2 C 81 % 1019,1 hPa 0,0 l/m 0,0 km/h (0 Bft) N 5,1 C 8,2 C 2,5 km/h (1 Bft)
08.04.2023 23:00 7,5 C 84 % 1019,0 hPa 0,0 l/m 0,0 km/h (0 Bft) N 5,0 C 7,5 C 0,0 km/h (0 Bft)
09.04.2023 00:00 6,8 C 85 % 1018,9 hPa 0,0 l/m 0,0 km/h (0 Bft) N 4,5 C 6,8 C 2,5 km/h (1 Bft)
09.04.2023 01:00 5,6 C 89 % 1019,0 hPa 0,0 l/m 0,0 km/h (0 Bft) N 3,9 C 5,6 C 2,5 km/h (1 Bft)
09.04.2023 02:00 4,3 C 90 % 1018,8 hPa 0,0 l/m 0,0 km/h (0 Bft) N-NO 2,8 C 4,3 C 0,0 km/h (0 Bft)
09.04.2023 03:00 3,4 C 91 % 1018,7 hPa 0,0 l/m 1,1 km/h (1 Bft) N-NO 2,1 C 3,4 C 2,5 km/h (1 Bft)
09.04.2023 04:00 3,2 C 91 % 1018,9 hPa 0,0 l/m 1,1 km/h (1 Bft) SO 1,9 C 3,2 C 3,6 km/h (1 Bft)
09.04.2023 05:00 3,1 C 92 % 1018,7 hPa 0,0 l/m 1,1 km/h (1 Bft) O-SO 1,9 C 3,1 C 2,5 km/h (1 Bft)
09.04.2023 06:00 3,2 C 91 % 1018,6 hPa 0,0 l/m 3,6 km/h (1 Bft) O-SO 1,9 C 3,2 C 9,7 km/h (2 Bft)
09.04.2023 07:00 3,2 C 90 % 1018,9 hPa 0,0 l/m 5,0 km/h (1 Bft) SO 1,7 C 3,2 C 7,2 km/h (2 Bft)
09.04.2023 08:00 5,3 C 85 % 1019,0 hPa 0,0 l/m 6,1 km/h (2 Bft) O-SO 3,0 C 5,3 C 9,7 km/h (2 Bft)
09.04.2023 09:00 8,6 C 72 % 1019,1 hPa 0,0 l/m 6,1 km/h (2 Bft) S 3,8 C 8,6 C 7,2 km/h (2 Bft)
09.04.2023 10:00 11,0 C 59 % 1019,2 hPa 0,0 l/m 1,1 km/h (1 Bft) W 3,3 C 11,0 C 2,5 km/h (1 Bft)
09.04.2023 11:00 11,8 C 59 % 1018,9 hPa 0,0 l/m 7,2 km/h (2 Bft) N-NO 4,1 C 11,3 C 9,7 km/h (2 Bft)
09.04.2023 12:00 14,4 C 50 % 1018,6 hPa 0,0 l/m 2,5 km/h (1 Bft) SO 4,1 C 14,4 C 7,2 km/h (2 Bft)
09.04.2023 13:00 14,2 C 46 % 1018,4 hPa 0,0 l/m 3,6 km/h (1 Bft) N-NO 2,8 C 14,2 C 7,2 km/h (2 Bft)
09.04.2023 14:00 15,5 C 47 % 1017,9 hPa 0,0 l/m 1,1 km/h (1 Bft) N 4,2 C 15,5 C 3,6 km/h (1 Bft)
09.04.2023 15:00 17,4 C 47 % 1017,5 hPa 0,0 l/m 0,0 km/h (0 Bft) N-NO 6,0 C 17,4 C 6,1 km/h (2 Bft)
09.04.2023 16:00 17,0 C 40 % 1016,9 hPa 0,0 l/m 3,6 km/h (1 Bft) N-NO 3,3 C 17,0 C 6,1 km/h (2 Bft)
09.04.2023 17:00 17,0 C 41 % 1016,6 hPa 0,0 l/m 3,6 km/h (1 Bft) SO 3,7 C 17,0 C 6,1 km/h (2 Bft)
09.04.2023 18:00 15,3 C 48 % 1016,6 hPa 0,0 l/m 7,2 km/h (2 Bft) SO 4,4 C 14,9 C 9,7 km/h (2 Bft)
09.04.2023 19:00 13,7 C 51 % 1016,7 hPa 0,0 l/m 7,2 km/h (2 Bft) N 3,8 C 13,2 C 11,2 km/h (2 Bft)
09.04.2023 20:00 10,8 C 59 % 1017,6 hPa 0,0 l/m 0,0 km/h (0 Bft) N 3,1 C 10,8 C 2,5 km/h (1 Bft)
09.04.2023 21:00 7,9 C 70 % 1017,9 hPa 0,0 l/m 0,0 km/h (0 Bft) O 2,8 C 7,9 C 0,0 km/h (0 Bft)
09.04.2023 22:00 8,4 C 67 % 1018,0 hPa 0,0 l/m 1,1 km/h (1 Bft) O 2,6 C 8,4 C 3,6 km/h (1 Bft)
09.04.2023 23:00 8,1 C 66 % 1018,1 hPa 0,0 l/m 2,5 km/h (1 Bft) N 2,1 C 8,1 C 3,6 km/h (1 Bft)
Min-Datum _ 04.04.23 05.04.23 06.04.23 - 03.04.23 - 04.04.23 04.04.23 03.04.23
_ Min-Zeit 07:37 18:37 05:37 - 04:37 - 07:37 07:37 04:37
Minimum _ -2,0 C 38 % 1002,2 hPa - 0,0 km/h (0 Bft) - -4,7 C -2,0 C 0,0 km/h (0 Bft)
Max-Datum _ 09.04.23 03.04.23 03.04.23 03.04.23 07.04.23 - 08.04.23 09.04.23 04.04.23
_ Max-Zeit 15:37 00:37 11:37 00:37 11:37 - 13:37 15:37 15:37
Maximum _ 17,4 C 94 % 1020,3 hPa 0,0 l/m 11,2 km/h
S-SW (2 Bft)
- 8,1 C 17,4 C 17,3 km/h
NO (3 Bft)
Durchschnitt _ 6,6 C 71 % 1016,5 hPa #0,0 l/m 2,3 km/h (1 Bft) W 1,4 C 6,5 C 4,3 km/h (1 Bft)
www.sexauwetter.de